sensor_id;sensor_type;location;lat;lon;timestamp;pressure;altitude;pressure_sealevel;temperature;humidity
53550;BME280;73079;52.914;-0.982;2024-03-02T00:00:22;98794.13;;;3.14;100.00
53550;BME280;73079;52.914;-0.982;2024-03-02T00:02:49;98788.53;;;3.09;100.00
53550;BME280;73079;52.914;-0.982;2024-03-02T00:05:16;98791.38;;;3.07;100.00
53550;BME280;73079;52.914;-0.982;2024-03-02T00:07:44;98790.09;;;3.03;100.00
53550;BME280;73079;52.914;-0.982;2024-03-02T00:10:14;98781.66;;;3.14;100.00
53550;BME280;73079;52.914;-0.982;2024-03-02T00:12:41;98790.38;;;3.08;100.00
53550;BME280;73079;52.914;-0.982;2024-03-02T00:15:31;98789.19;;;2.96;100.00
53550;BME280;73079;52.914;-0.982;2024-03-02T00:18:01;98792.56;;;3.04;100.00
53550;BME280;73079;52.914;-0.982;2024-03-02T00:20:27;98798.75;;;2.82;100.00
53550;BME280;73079;52.914;-0.982;2024-03-02T00:22:59;98798.88;;;2.89;100.00
53550;BME280;73079;52.914;-0.982;2024-03-02T00:25:27;98798.69;;;3.05;100.00
53550;BME280;73079;52.914;-0.982;2024-03-02T00:27:53;98800.53;;;2.90;100.00
53550;BME280;73079;52.914;-0.982;2024-03-02T00:30:51;98795.38;;;2.73;100.00
53550;BME280;73079;52.914;-0.982;2024-03-02T00:33:21;98799.03;;;2.87;100.00
53550;BME280;73079;52.914;-0.982;2024-03-02T00:35:47;98791.47;;;2.99;100.00
53550;BME280;73079;52.914;-0.982;2024-03-02T00:38:16;98788.81;;;2.99;100.00
53550;BME280;73079;52.914;-0.982;2024-03-02T00:40:42;98791.09;;;2.72;100.00
53550;BME280;73079;52.914;-0.982;2024-03-02T00:45:57;98804.91;;;2.97;100.00
53550;BME280;73079;52.914;-0.982;2024-03-02T00:48:23;98800.53;;;2.90;100.00
53550;BME280;73079;52.914;-0.982;2024-03-02T00:50:50;98800.31;;;2.76;100.00
53550;BME280;73079;52.914;-0.982;2024-03-02T00:53:21;98799.69;;;2.89;100.00
53550;BME280;73079;52.914;-0.982;2024-03-02T00:55:50;98798.31;;;2.78;100.00
53550;BME280;73079;52.914;-0.982;2024-03-02T00:58:16;98785.31;;;2.69;100.00
53550;BME280;73079;52.914;-0.982;2024-03-02T01:00:41;98789.41;;;2.56;100.00
53550;BME280;73079;52.914;-0.982;2024-03-02T01:03:07;98779.03;;;2.46;100.00
53550;BME280;73079;52.914;-0.982;2024-03-02T01:05:33;98782.84;;;2.67;100.00
53550;BME280;73079;52.914;-0.982;2024-03-02T01:07:59;98780.75;;;2.77;100.00
53550;BME280;73079;52.914;-0.982;2024-03-02T01:10:26;98781.28;;;2.88;100.00
53550;BME280;73079;52.914;-0.982;2024-03-02T01:12:53;98777.53;;;2.67;100.00
53550;BME280;73079;52.914;-0.982;2024-03-02T01:15:18;98781.00;;;2.82;100.00
53550;BME280;73079;52.914;-0.982;2024-03-02T01:17:45;98777.75;;;2.95;100.00
53550;BME280;73079;52.914;-0.982;2024-03-02T01:20:11;98774.19;;;3.03;100.00
53550;BME280;73079;52.914;-0.982;2024-03-02T01:22:37;98779.03;;;2.84;100.00
53550;BME280;73079;52.914;-0.982;2024-03-02T01:25:03;98778.00;;;2.85;100.00
53550;BME280;73079;52.914;-0.982;2024-03-02T01:27:30;98782.69;;;2.83;100.00
53550;BME280;73079;52.914;-0.982;2024-03-02T01:29:56;98782.75;;;2.75;100.00
53550;BME280;73079;52.914;-0.982;2024-03-02T01:32:22;98781.75;;;2.91;100.00
53550;BME280;73079;52.914;-0.982;2024-03-02T01:34:47;98780.84;;;2.84;100.00
53550;BME280;73079;52.914;-0.982;2024-03-02T01:37:13;98779.16;;;2.68;100.00
53550;BME280;73079;52.914;-0.982;2024-03-02T01:39:39;98780.38;;;2.80;100.00
53550;BME280;73079;52.914;-0.982;2024-03-02T01:42:05;98775.91;;;2.81;100.00
53550;BME280;73079;52.914;-0.982;2024-03-02T01:44:32;98770.00;;;2.56;100.00
53550;BME280;73079;52.914;-0.982;2024-03-02T01:46:57;98770.75;;;2.64;100.00
53550;BME280;73079;52.914;-0.982;2024-03-02T01:49:23;98772.03;;;2.54;100.00
53550;BME280;73079;52.914;-0.982;2024-03-02T01:51:49;98770.44;;;2.44;100.00
53550;BME280;73079;52.914;-0.982;2024-03-02T01:54:15;98766.59;;;2.70;100.00
53550;BME280;73079;52.914;-0.982;2024-03-02T01:56:41;98775.97;;;2.58;100.00
53550;BME280;73079;52.914;-0.982;2024-03-02T01:59:07;98778.91;;;2.63;100.00
53550;BME280;73079;52.914;-0.982;2024-03-02T02:01:34;98765.41;;;2.35;100.00
53550;BME280;73079;52.914;-0.982;2024-03-02T02:04:00;98762.91;;;2.56;100.00
53550;BME280;73079;52.914;-0.982;2024-03-02T02:06:26;98757.34;;;2.28;100.00
53550;BME280;73079;52.914;-0.982;2024-03-02T02:08:52;98767.22;;;1.96;100.00
53550;BME280;73079;52.914;-0.982;2024-03-02T02:11:17;98769.97;;;2.03;100.00
53550;BME280;73079;52.914;-0.982;2024-03-02T02:13:44;98770.94;;;2.25;100.00
53550;BME280;73079;52.914;-0.982;2024-03-02T02:16:10;98764.97;;;2.31;100.00
53550;BME280;73079;52.914;-0.982;2024-03-02T02:18:37;98771.06;;;2.32;100.00
53550;BME280;73079;52.914;-0.982;2024-03-02T02:21:03;98773.28;;;2.43;100.00
53550;BME280;73079;52.914;-0.982;2024-03-02T02:23:30;98770.56;;;2.51;100.00
53550;BME280;73079;52.914;-0.982;2024-03-02T02:25:56;98756.22;;;2.45;100.00
53550;BME280;73079;52.914;-0.982;2024-03-02T02:28:22;98761.28;;;2.32;100.00
53550;BME280;73079;52.914;-0.982;2024-03-02T02:30:48;98765.78;;;2.46;100.00
53550;BME280;73079;52.914;-0.982;2024-03-02T02:33:14;98763.72;;;2.57;100.00
53550;BME280;73079;52.914;-0.982;2024-03-02T02:35:40;98767.13;;;2.65;100.00
53550;BME280;73079;52.914;-0.982;2024-03-02T02:38:06;98753.56;;;2.60;100.00
53550;BME280;73079;52.914;-0.982;2024-03-02T02:40:33;98745.34;;;2.55;100.00
53550;BME280;73079;52.914;-0.982;2024-03-02T02:42:59;98737.41;;;2.70;100.00
53550;BME280;73079;52.914;-0.982;2024-03-02T02:45:25;98737.41;;;2.70;100.00
53550;BME280;73079;52.914;-0.982;2024-03-02T02:47:51;98734.28;;;2.52;100.00
53550;BME280;73079;52.914;-0.982;2024-03-02T02:50:16;98726.97;;;2.69;100.00
53550;BME280;73079;52.914;-0.982;2024-03-02T02:52:43;98719.66;;;2.71;100.00
53550;BME280;73079;52.914;-0.982;2024-03-02T02:55:10;98723.94;;;2.57;100.00
53550;BME280;73079;52.914;-0.982;2024-03-02T02:57:39;98717.56;;;2.66;100.00
53550;BME280;73079;52.914;-0.982;2024-03-02T03:00:07;98722.69;;;2.53;100.00
53550;BME280;73079;52.914;-0.982;2024-03-02T03:02:39;98718.13;;;2.61;100.00
53550;BME280;73079;52.914;-0.982;2024-03-02T03:05:06;98715.44;;;2.46;100.00
53550;BME280;73079;52.914;-0.982;2024-03-02T03:07:33;98711.50;;;2.57;100.00
53550;BME280;73079;52.914;-0.982;2024-03-02T03:10:06;98718.00;;;2.55;100.00
53550;BME280;73079;52.914;-0.982;2024-03-02T03:12:35;98713.34;;;2.72;100.00
53550;BME280;73079;52.914;-0.982;2024-03-02T03:15:06;98712.06;;;2.67;100.00
53550;BME280;73079;52.914;-0.982;2024-03-02T03:17:35;98712.34;;;2.58;100.00
53550;BME280;73079;52.914;-0.982;2024-03-02T03:20:05;98702.03;;;2.63;100.00
53550;BME280;73079;52.914;-0.982;2024-03-02T03:22:38;98703.38;;;2.59;100.00
53550;BME280;73079;52.914;-0.982;2024-03-02T03:25:08;98705.22;;;2.43;100.00
53550;BME280;73079;52.914;-0.982;2024-03-02T03:27:36;98706.03;;;2.44;100.00
53550;BME280;73079;52.914;-0.982;2024-03-02T03:30:09;98709.59;;;2.66;100.00
53550;BME280;73079;52.914;-0.982;2024-03-02T03:32:35;98707.69;;;2.60;100.00
53550;BME280;73079;52.914;-0.982;2024-03-02T03:35:02;98710.22;;;2.68;100.00
53550;BME280;73079;52.914;-0.982;2024-03-02T03:37:31;98702.09;;;2.55;100.00
53550;BME280;73079;52.914;-0.982;2024-03-02T03:40:00;98697.91;;;2.45;100.00
53550;BME280;73079;52.914;-0.982;2024-03-02T03:42:28;98695.88;;;2.47;100.00
53550;BME280;73079;52.914;-0.982;2024-03-02T03:44:55;98701.19;;;2.47;100.00
53550;BME280;73079;52.914;-0.982;2024-03-02T03:47:22;98697.34;;;2.35;100.00
53550;BME280;73079;52.914;-0.982;2024-03-02T03:49:48;98708.03;;;2.42;100.00
53550;BME280;73079;52.914;-0.982;2024-03-02T03:52:13;98707.19;;;2.41;100.00
53550;BME280;73079;52.914;-0.982;2024-03-02T03:54:39;98698.97;;;2.36;100.00
53550;BME280;73079;52.914;-0.982;2024-03-02T03:57:05;98697.72;;;2.47;100.00
53550;BME280;73079;52.914;-0.982;2024-03-02T03:59:31;98698.88;;;2.44;100.00
53550;BME280;73079;52.914;-0.982;2024-03-02T04:01:57;98699.25;;;2.41;100.00
53550;BME280;73079;52.914;-0.982;2024-03-02T04:04:24;98703.84;;;2.62;100.00
53550;BME280;73079;52.914;-0.982;2024-03-02T04:06:50;98698.81;;;2.53;100.00
53550;BME280;73079;52.914;-0.982;2024-03-02T04:09:15;98697.88;;;2.75;100.00
53550;BME280;73079;52.914;-0.982;2024-03-02T04:11:41;98694.16;;;2.70;100.00
53550;BME280;73079;52.914;-0.982;2024-03-02T04:14:07;98704.94;;;2.68;100.00
53550;BME280;73079;52.914;-0.982;2024-03-02T04:16:33;98704.72;;;2.40;100.00
53550;BME280;73079;52.914;-0.982;2024-03-02T04:18:59;98705.84;;;2.45;100.00
53550;BME280;73079;52.914;-0.982;2024-03-02T04:21:26;98707.59;;;2.38;100.00
53550;BME280;73079;52.914;-0.982;2024-03-02T04:23:51;98711.56;;;2.34;100.00
53550;BME280;73079;52.914;-0.982;2024-03-02T04:26:17;98702.78;;;2.19;100.00
53550;BME280;73079;52.914;-0.982;2024-03-02T04:28:47;98712.66;;;2.25;100.00
53550;BME280;73079;52.914;-0.982;2024-03-02T04:31:14;98715.25;;;2.33;100.00
53550;BME280;73079;52.914;-0.982;2024-03-02T04:33:40;98711.13;;;2.31;100.00
53550;BME280;73079;52.914;-0.982;2024-03-02T04:36:06;98715.31;;;2.25;100.00
53550;BME280;73079;52.914;-0.982;2024-03-02T04:38:36;98714.69;;;2.38;100.00
53550;BME280;73079;52.914;-0.982;2024-03-02T04:41:02;98712.44;;;2.64;100.00
53550;BME280;73079;52.914;-0.982;2024-03-02T04:43:28;98707.03;;;2.43;100.00
53550;BME280;73079;52.914;-0.982;2024-03-02T04:45:53;98707.75;;;2.52;100.00
53550;BME280;73079;52.914;-0.982;2024-03-02T04:48:19;98709.41;;;2.53;100.00
53550;BME280;73079;52.914;-0.982;2024-03-02T04:50:45;98708.84;;;2.42;100.00
53550;BME280;73079;52.914;-0.982;2024-03-02T04:53:11;98707.91;;;2.20;100.00
53550;BME280;73079;52.914;-0.982;2024-03-02T04:55:38;98720.78;;;2.23;100.00
53550;BME280;73079;52.914;-0.982;2024-03-02T04:58:06;98715.75;;;2.14;100.00
53550;BME280;73079;52.914;-0.982;2024-03-02T05:00:32;98718.56;;;2.12;100.00
53550;BME280;73079;52.914;-0.982;2024-03-02T05:02:58;98715.66;;;2.22;100.00
53550;BME280;73079;52.914;-0.982;2024-03-02T05:05:24;98717.66;;;2.20;100.00
53550;BME280;73079;52.914;-0.982;2024-03-02T05:07:50;98713.69;;;2.24;100.00
53550;BME280;73079;52.914;-0.982;2024-03-02T05:10:16;98714.31;;;2.26;100.00
53550;BME280;73079;52.914;-0.982;2024-03-02T05:12:43;98715.13;;;2.26;100.00
53550;BME280;73079;52.914;-0.982;2024-03-02T05:15:09;98712.31;;;2.28;100.00
53550;BME280;73079;52.914;-0.982;2024-03-02T05:17:35;98720.16;;;2.36;100.00
53550;BME280;73079;52.914;-0.982;2024-03-02T05:20:01;98723.09;;;2.41;100.00
53550;BME280;73079;52.914;-0.982;2024-03-02T05:22:27;98717.84;;;2.56;100.00
53550;BME280;73079;52.914;-0.982;2024-03-02T05:24:53;98721.75;;;2.45;100.00
53550;BME280;73079;52.914;-0.982;2024-03-02T05:27:19;98720.16;;;2.36;100.00
53550;BME280;73079;52.914;-0.982;2024-03-02T05:29:46;98725.09;;;2.39;100.00
53550;BME280;73079;52.914;-0.982;2024-03-02T05:32:12;98722.56;;;2.31;100.00
53550;BME280;73079;52.914;-0.982;2024-03-02T05:34:38;98723.19;;;2.33;100.00
53550;BME280;73079;52.914;-0.982;2024-03-02T05:37:04;98721.56;;;2.47;100.00
53550;BME280;73079;52.914;-0.982;2024-03-02T05:39:29;98727.13;;;2.37;100.00
53550;BME280;73079;52.914;-0.982;2024-03-02T05:41:55;98717.97;;;2.25;100.00
53550;BME280;73079;52.914;-0.982;2024-03-02T05:44:21;98719.44;;;2.27;100.00
53550;BME280;73079;52.914;-0.982;2024-03-02T05:46:49;98715.25;;;2.33;100.00
53550;BME280;73079;52.914;-0.982;2024-03-02T05:49:15;98717.25;;;2.31;100.00
53550;BME280;73079;52.914;-0.982;2024-03-02T05:51:41;98723.72;;;2.28;100.00
53550;BME280;73079;52.914;-0.982;2024-03-02T05:54:07;98713.13;;;2.28;100.00
53550;BME280;73079;52.914;-0.982;2024-03-02T05:56:33;98723.53;;;2.30;100.00
53550;BME280;73079;52.914;-0.982;2024-03-02T05:58:59;98716.63;;;2.44;100.00
53550;BME280;73079;52.914;-0.982;2024-03-02T06:01:42;98713.53;;;2.55;100.00
53550;BME280;73079;52.914;-0.982;2024-03-02T06:04:10;98722.47;;;2.39;100.00
53550;BME280;73079;52.914;-0.982;2024-03-02T06:06:36;98707.28;;;2.33;100.00
53550;BME280;73079;52.914;-0.982;2024-03-02T06:09:02;98716.28;;;2.47;100.00
53550;BME280;73079;52.914;-0.982;2024-03-02T06:11:33;98714.34;;;2.41;100.00
53550;BME280;73079;52.914;-0.982;2024-03-02T06:13:59;98722.63;;;2.38;100.00
53550;BME280;73079;52.914;-0.982;2024-03-02T06:16:24;98721.19;;;2.50;100.00
53550;BME280;73079;52.914;-0.982;2024-03-02T06:18:50;98716.19;;;2.55;100.00
53550;BME280;73079;52.914;-0.982;2024-03-02T06:21:18;98717.09;;;2.47;100.00
53550;BME280;73079;52.914;-0.982;2024-03-02T06:23:44;98714.16;;;2.42;100.00
53550;BME280;73079;52.914;-0.982;2024-03-02T06:26:09;98719.09;;;2.45;100.00
53550;BME280;73079;52.914;-0.982;2024-03-02T06:28:35;98711.22;;;2.37;100.00
53550;BME280;73079;52.914;-0.982;2024-03-02T06:31:02;98722.28;;;2.56;100.00
53550;BME280;73079;52.914;-0.982;2024-03-02T06:33:27;98721.94;;;2.44;100.00
53550;BME280;73079;52.914;-0.982;2024-03-02T06:35:54;98713.81;;;2.45;100.00
53550;BME280;73079;52.914;-0.982;2024-03-02T06:38:21;98714.72;;;2.53;100.00
53550;BME280;73079;52.914;-0.982;2024-03-02T06:40:46;98708.03;;;2.42;100.00
53550;BME280;73079;52.914;-0.982;2024-03-02T06:43:12;98700.69;;;2.29;100.00
53550;BME280;73079;52.914;-0.982;2024-03-02T06:45:38;98699.53;;;2.46;100.00
53550;BME280;73079;52.914;-0.982;2024-03-02T06:48:05;98694.75;;;2.27;100.00
53550;BME280;73079;52.914;-0.982;2024-03-02T06:50:30;98694.72;;;2.12;100.00
53550;BME280;73079;52.914;-0.982;2024-03-02T06:52:56;98699.41;;;2.25;100.00
53550;BME280;73079;52.914;-0.982;2024-03-02T06:55:24;98692.19;;;2.19;100.00
53550;BME280;73079;52.914;-0.982;2024-03-02T06:57:52;98695.13;;;2.24;100.00
53550;BME280;73079;52.914;-0.982;2024-03-02T07:00:19;98707.13;;;2.35;100.00
53550;BME280;73079;52.914;-0.982;2024-03-02T07:02:45;98701.81;;;2.35;100.00
53550;BME280;73079;52.914;-0.982;2024-03-02T07:05:12;98710.75;;;2.34;100.00
53550;BME280;73079;52.914;-0.982;2024-03-02T07:07:37;98705.91;;;2.37;100.00
53550;BME280;73079;52.914;-0.982;2024-03-02T07:10:04;98707.28;;;2.33;100.00
53550;BME280;73079;52.914;-0.982;2024-03-02T07:12:31;98710.75;;;2.34;100.00
53550;BME280;73079;52.914;-0.982;2024-03-02T07:14:57;98706.66;;;2.31;100.00
53550;BME280;73079;52.914;-0.982;2024-03-02T07:17:29;98703.34;;;2.29;100.00
53550;BME280;73079;52.914;-0.982;2024-03-02T07:19:54;98709.22;;;2.39;100.00
53550;BME280;73079;52.914;-0.982;2024-03-02T07:22:20;98705.09;;;2.37;100.00
53550;BME280;73079;52.914;-0.982;2024-03-02T07:24:46;98697.44;;;2.57;100.00
53550;BME280;73079;52.914;-0.982;2024-03-02T07:27:12;98699.16;;;2.50;100.00
53550;BME280;73079;52.914;-0.982;2024-03-02T07:29:40;98697.06;;;2.75;100.00
53550;BME280;73079;52.914;-0.982;2024-03-02T07:32:06;98693.13;;;2.85;100.00
53550;BME280;73079;52.914;-0.982;2024-03-02T07:34:33;98697.16;;;2.81;100.00
53550;BME280;73079;52.914;-0.982;2024-03-02T07:36:59;98699.53;;;2.91;100.00
53550;BME280;73079;52.914;-0.982;2024-03-02T07:39:25;98701.47;;;2.97;100.00
53550;BME280;73079;52.914;-0.982;2024-03-02T07:41:51;98696.25;;;3.04;100.00
53550;BME280;73079;52.914;-0.982;2024-03-02T07:44:17;98687.66;;;3.38;100.00
53550;BME280;73079;52.914;-0.982;2024-03-02T07:46:46;98689.75;;;3.43;100.00
53550;BME280;73079;52.914;-0.982;2024-03-02T07:49:12;98694.28;;;3.49;100.00
53550;BME280;73079;52.914;-0.982;2024-03-02T07:51:41;98699.34;;;3.44;100.00
53550;BME280;73079;52.914;-0.982;2024-03-02T07:54:08;98690.81;;;3.12;100.00
53550;BME280;73079;52.914;-0.982;2024-03-02T07:56:34;98703.50;;;3.32;100.00
53550;BME280;73079;52.914;-0.982;2024-03-02T07:59:01;98691.81;;;3.91;100.00
53550;BME280;73079;52.914;-0.982;2024-03-02T08:01:27;98700.63;;;3.91;100.00
53550;BME280;73079;52.914;-0.982;2024-03-02T08:03:56;98693.75;;;3.75;100.00
53550;BME280;73079;52.914;-0.982;2024-03-02T08:06:24;98692.03;;;3.68;100.00
53550;BME280;73079;52.914;-0.982;2024-03-02T08:08:53;98695.31;;;4.13;100.00
53550;BME280;73079;52.914;-0.982;2024-03-02T08:11:19;98689.84;;;3.99;100.00
53550;BME280;73079;52.914;-0.982;2024-03-02T08:13:45;98696.38;;;4.47;100.00
53550;BME280;73079;52.914;-0.982;2024-03-02T08:16:10;98678.84;;;4.59;100.00
53550;BME280;73079;52.914;-0.982;2024-03-02T08:18:36;98687.66;;;4.31;100.00
53550;BME280;73079;52.914;-0.982;2024-03-02T08:21:05;98694.63;;;4.32;100.00
53550;BME280;73079;52.914;-0.982;2024-03-02T08:23:32;98691.03;;;4.47;100.00
53550;BME280;73079;52.914;-0.982;2024-03-02T08:25:59;98680.16;;;4.42;100.00
53550;BME280;73079;52.914;-0.982;2024-03-02T08:28:25;98686.06;;;4.09;100.00
53550;BME280;73079;52.914;-0.982;2024-03-02T08:30:50;98693.22;;;3.87;100.00
53550;BME280;73079;52.914;-0.982;2024-03-02T08:33:16;98689.16;;;3.91;100.00
53550;BME280;73079;52.914;-0.982;2024-03-02T08:35:42;98685.63;;;3.84;100.00
53550;BME280;73079;52.914;-0.982;2024-03-02T08:38:10;98682.03;;;3.91;100.00
53550;BME280;73079;52.914;-0.982;2024-03-02T08:40:36;98689.50;;;3.81;100.00
53550;BME280;73079;52.914;-0.982;2024-03-02T08:43:01;98677.66;;;3.84;100.00
53550;BME280;73079;52.914;-0.982;2024-03-02T08:45:27;98681.97;;;3.85;100.00
53550;BME280;73079;52.914;-0.982;2024-03-02T08:47:53;98685.59;;;3.77;100.00
53550;BME280;73079;52.914;-0.982;2024-03-02T08:50:19;98675.06;;;3.90;100.00
53550;BME280;73079;52.914;-0.982;2024-03-02T08:52:45;98674.44;;;3.88;100.00
53550;BME280;73079;52.914;-0.982;2024-03-02T08:55:12;98671.41;;;3.91;100.00
53550;BME280;73079;52.914;-0.982;2024-03-02T08:57:38;98662.28;;;4.00;100.00
53550;BME280;73079;52.914;-0.982;2024-03-02T09:00:05;98665.44;;;4.11;100.00
53550;BME280;73079;52.914;-0.982;2024-03-02T09:02:31;98670.34;;;4.14;100.00
53550;BME280;73079;52.914;-0.982;2024-03-02T09:04:57;98664.34;;;4.27;100.00
53550;BME280;73079;52.914;-0.982;2024-03-02T09:07:23;98661.06;;;4.25;100.00
53550;BME280;73079;52.914;-0.982;2024-03-02T09:09:49;98665.03;;;4.14;100.00
53550;BME280;73079;52.914;-0.982;2024-03-02T09:12:17;98658.97;;;4.20;100.00
53550;BME280;73079;52.914;-0.982;2024-03-02T09:14:43;98666.81;;;4.28;100.00
53550;BME280;73079;52.914;-0.982;2024-03-02T09:17:08;98670.50;;;4.34;100.00
53550;BME280;73079;52.914;-0.982;2024-03-02T09:19:36;98673.00;;;4.35;100.00
53550;BME280;73079;52.914;-0.982;2024-03-02T09:22:02;98672.00;;;4.43;100.00
53550;BME280;73079;52.914;-0.982;2024-03-02T09:24:28;98670.00;;;4.52;100.00
53550;BME280;73079;52.914;-0.982;2024-03-02T09:26:54;98666.56;;;4.58;100.00
53550;BME280;73079;52.914;-0.982;2024-03-02T09:29:21;98662.50;;;4.62;100.00
53550;BME280;73079;52.914;-0.982;2024-03-02T09:31:47;98664.03;;;4.78;100.00
53550;BME280;73079;52.914;-0.982;2024-03-02T09:34:15;98670.31;;;5.19;100.00
53550;BME280;73079;52.914;-0.982;2024-03-02T09:36:41;98663.28;;;5.52;100.00
53550;BME280;73079;52.914;-0.982;2024-03-02T09:39:07;98662.03;;;5.55;99.51
53550;BME280;73079;52.914;-0.982;2024-03-02T09:41:35;98661.03;;;5.56;99.11
53550;BME280;73079;52.914;-0.982;2024-03-02T09:44:02;98658.97;;;5.71;96.90
53550;BME280;73079;52.914;-0.982;2024-03-02T09:46:29;98660.81;;;5.64;98.21
53550;BME280;73079;52.914;-0.982;2024-03-02T09:48:56;98663.47;;;5.58;94.87
53550;BME280;73079;52.914;-0.982;2024-03-02T09:51:23;98657.53;;;5.49;94.13
53550;BME280;73079;52.914;-0.982;2024-03-02T09:53:49;98654.25;;;5.53;98.99
53550;BME280;73079;52.914;-0.982;2024-03-02T09:56:18;98653.41;;;5.46;100.00
53550;BME280;73079;52.914;-0.982;2024-03-02T09:58:44;98657.94;;;5.52;99.02
53550;BME280;73079;52.914;-0.982;2024-03-02T10:01:10;98653.44;;;5.60;95.13
53550;BME280;73079;52.914;-0.982;2024-03-02T10:03:37;98660.78;;;5.58;98.36
53550;BME280;73079;52.914;-0.982;2024-03-02T10:06:21;98658.34;;;5.49;96.69
53550;BME280;73079;52.914;-0.982;2024-03-02T10:08:47;98641.75;;;5.47;100.00
53550;BME280;73079;52.914;-0.982;2024-03-02T10:11:25;98650.31;;;5.29;100.00
53550;BME280;73079;52.914;-0.982;2024-03-02T10:14:04;98656.84;;;5.27;100.00
53550;BME280;73079;52.914;-0.982;2024-03-02T10:16:31;98657.06;;;5.32;100.00
53550;BME280;73079;52.914;-0.982;2024-03-02T10:19:15;98653.78;;;5.30;100.00
53550;BME280;73079;52.914;-0.982;2024-03-02T10:21:42;98658.28;;;5.36;100.00
53550;BME280;73079;52.914;-0.982;2024-03-02T10:24:09;98650.13;;;5.44;100.00
53550;BME280;73079;52.914;-0.982;2024-03-02T10:26:35;98667.31;;;5.42;100.00
53550;BME280;73079;52.914;-0.982;2024-03-02T10:29:01;98656.25;;;5.38;100.00
53550;BME280;73079;52.914;-0.982;2024-03-02T10:31:28;98656.03;;;5.40;100.00
53550;BME280;73079;52.914;-0.982;2024-03-02T10:33:55;98652.19;;;5.56;100.00
53550;BME280;73079;52.914;-0.982;2024-03-02T10:36:25;98654.44;;;5.59;100.00
53550;BME280;73079;52.914;-0.982;2024-03-02T10:38:52;98644.44;;;5.67;100.00
53550;BME280;73079;52.914;-0.982;2024-03-02T10:41:23;98645.25;;;5.68;100.00
53550;BME280;73079;52.914;-0.982;2024-03-02T10:43:51;98656.31;;;5.71;100.00
53550;BME280;73079;52.914;-0.982;2024-03-02T10:46:20;98649.16;;;5.85;97.60
53550;BME280;73079;52.914;-0.982;2024-03-02T10:48:47;98656.34;;;5.85;94.27
53550;BME280;73079;52.914;-0.982;2024-03-02T10:51:13;98658.38;;;5.76;96.14
53550;BME280;73079;52.914;-0.982;2024-03-02T10:53:41;98654.47;;;5.85;93.58
53550;BME280;73079;52.914;-0.982;2024-03-02T10:56:09;98662.88;;;5.82;92.76
53550;BME280;73079;52.914;-0.982;2024-03-02T10:58:40;98662.47;;;5.85;93.38
53550;BME280;73079;52.914;-0.982;2024-03-02T11:01:07;98667.00;;;5.85;94.19
53550;BME280;73079;52.914;-0.982;2024-03-02T11:03:36;98669.09;;;6.03;97.03
53550;BME280;73079;52.914;-0.982;2024-03-02T11:06:08;98668.22;;;5.89;91.91
53550;BME280;73079;52.914;-0.982;2024-03-02T11:08:37;98677.66;;;5.92;92.52
53550;BME280;73079;52.914;-0.982;2024-03-02T11:11:14;98676.03;;;5.90;89.03
53550;BME280;73079;52.914;-0.982;2024-03-02T11:13:43;98680.53;;;5.90;88.69
53550;BME280;73079;52.914;-0.982;2024-03-02T11:16:16;98680.09;;;5.93;87.13
53550;BME280;73079;52.914;-0.982;2024-03-02T11:18:45;98679.53;;;5.98;84.20
53550;BME280;73079;52.914;-0.982;2024-03-02T11:21:12;98680.53;;;6.23;84.77
53550;BME280;73079;52.914;-0.982;2024-03-02T11:23:39;98682.19;;;6.24;83.40
53550;BME280;73079;52.914;-0.982;2024-03-02T11:26:19;98676.44;;;6.47;82.41
53550;BME280;73079;52.914;-0.982;2024-03-02T11:28:46;98675.59;;;6.60;82.37
53550;BME280;73079;52.914;-0.982;2024-03-02T11:31:13;98688.31;;;6.72;82.41
53550;BME280;73079;52.914;-0.982;2024-03-02T11:33:39;98689.09;;;6.79;80.61
53550;BME280;73079;52.914;-0.982;2024-03-02T11:36:07;98683.50;;;6.94;80.71
53550;BME280;73079;52.914;-0.982;2024-03-02T11:38:34;98681.66;;;6.94;81.21
53550;BME280;73079;52.914;-0.982;2024-03-02T11:41:01;98677.84;;;7.22;80.54
53550;BME280;73079;52.914;-0.982;2024-03-02T11:43:29;98684.31;;;7.46;80.25
53550;BME280;73079;52.914;-0.982;2024-03-02T11:45:58;98687.53;;;7.55;79.55
53550;BME280;73079;52.914;-0.982;2024-03-02T11:48:25;98689.59;;;7.14;78.61
53550;BME280;73079;52.914;-0.982;2024-03-02T11:50:51;98680.31;;;7.23;78.67
53550;BME280;73079;52.914;-0.982;2024-03-02T11:53:18;98682.19;;;7.16;80.94
53550;BME280;73079;52.914;-0.982;2024-03-02T11:55:45;98679.56;;;7.10;78.99
53550;BME280;73079;52.914;-0.982;2024-03-02T11:58:12;98678.34;;;7.44;78.90
53550;BME280;73079;52.914;-0.982;2024-03-02T12:00:39;98681.91;;;7.31;77.47
53550;BME280;73079;52.914;-0.982;2024-03-02T12:03:06;98680.22;;;7.43;78.56
53550;BME280;73079;52.914;-0.982;2024-03-02T12:05:32;98679.44;;;7.36;79.11
53550;BME280;73079;52.914;-0.982;2024-03-02T12:07:59;98679.13;;;7.13;78.80
53550;BME280;73079;52.914;-0.982;2024-03-02T12:10:25;98683.25;;;7.09;79.74
53550;BME280;73079;52.914;-0.982;2024-03-02T12:13:01;98684.69;;;7.04;80.15
53550;BME280;73079;52.914;-0.982;2024-03-02T12:15:29;98696.84;;;6.94;79.91
53550;BME280;73079;52.914;-0.982;2024-03-02T12:17:58;98687.25;;;6.79;79.63
53550;BME280;73079;52.914;-0.982;2024-03-02T12:20:25;98683.72;;;6.85;79.17
53550;BME280;73079;52.914;-0.982;2024-03-02T12:22:51;98683.31;;;6.95;80.22
53550;BME280;73079;52.914;-0.982;2024-03-02T12:25:20;98675.91;;;6.91;79.80
53550;BME280;73079;52.914;-0.982;2024-03-02T12:27:47;98680.81;;;7.00;79.19
53550;BME280;73079;52.914;-0.982;2024-03-02T12:30:16;98673.69;;;7.33;78.94
53550;BME280;73079;52.914;-0.982;2024-03-02T12:32:42;98674.06;;;7.43;79.99
53550;BME280;73079;52.914;-0.982;2024-03-02T12:35:10;98665.34;;;7.16;78.76
53550;BME280;73079;52.914;-0.982;2024-03-02T12:37:43;98677.06;;;7.15;78.92
53550;BME280;73079;52.914;-0.982;2024-03-02T12:40:10;98673.03;;;6.92;77.01
53550;BME280;73079;52.914;-0.982;2024-03-02T12:42:37;98664.84;;;6.87;77.20
53550;BME280;73079;52.914;-0.982;2024-03-02T12:45:05;98665.00;;;6.99;79.43
53550;BME280;73079;52.914;-0.982;2024-03-02T12:47:32;98668.50;;;6.93;78.08
53550;BME280;73079;52.914;-0.982;2024-03-02T12:49:58;98667.06;;;7.03;77.87
53550;BME280;73079;52.914;-0.982;2024-03-02T12:52:26;98666.41;;;7.01;78.85
53550;BME280;73079;52.914;-0.982;2024-03-02T12:54:52;98676.19;;;7.21;77.20